Terminal Aerodrome Forecast
Issued by NWS

Home | Current Version | Previous Version | Graphics & Text | Print | Product List | Glossary On
Versions: 1 2 3 4 5 6 7 8 9 10 11 12 13 14 15 16
000
FTUS43 KGRB 212300
TAFAUW
TAF
KAUW 212337Z 2200/2224 17008KT P6SM BKN040
     FM220600 17005KT 5SM BR SCT025 BKN040 WS010/21035KT
      TEMPO 2209/2212 3SM TSRA OVC025CB
     FM221500 21015G25KT P6SM SCT015 SCT030
     FM221900 28014G22KT P6SM SCT035 BKN090=

USA.gov is the U.S. government's official web portal to all federal, state and local government web resources and services.